sensor_id;sensor_type;location;lat;lon;timestamp;pressure;altitude;pressure_sealevel;temperature;humidity
5753;BME280;2901;42.140;24.760;2023-06-19T00:01:59;99267.34;;;21.83;91.01
5753;BME280;2901;42.140;24.760;2023-06-19T00:04:25;99267.69;;;21.77;90.95
5753;BME280;2901;42.140;24.760;2023-06-19T00:06:52;99265.13;;;21.75;91.23
5753;BME280;2901;42.140;24.760;2023-06-19T00:09:18;99270.31;;;21.77;91.10
5753;BME280;2901;42.140;24.760;2023-06-19T00:11:43;99266.31;;;21.69;91.55
5753;BME280;2901;42.140;24.760;2023-06-19T00:14:08;99263.84;;;21.66;91.76
5753;BME280;2901;42.140;24.760;2023-06-19T00:16:34;99270.72;;;21.69;91.56
5753;BME280;2901;42.140;24.760;2023-06-19T00:18:59;99272.59;;;21.67;91.73
5753;BME280;2901;42.140;24.760;2023-06-19T00:21:25;99274.38;;;21.66;91.80
5753;BME280;2901;42.140;24.760;2023-06-19T00:23:51;99280.75;;;21.62;92.15
5753;BME280;2901;42.140;24.760;2023-06-19T00:26:17;99279.91;;;21.62;92.30
5753;BME280;2901;42.140;24.760;2023-06-19T00:28:44;99276.91;;;21.52;92.16
5753;BME280;2901;42.140;24.760;2023-06-19T00:31:11;99278.47;;;21.56;92.15
5753;BME280;2901;42.140;24.760;2023-06-19T00:33:39;99270.72;;;21.53;91.70
5753;BME280;2901;42.140;24.760;2023-06-19T00:36:12;99273.44;;;21.52;91.64
5753;BME280;2901;42.140;24.760;2023-06-19T00:38:40;99269.19;;;21.49;91.46
5753;BME280;2901;42.140;24.760;2023-06-19T00:41:06;99286.72;;;21.50;91.60
5753;BME280;2901;42.140;24.760;2023-06-19T00:43:32;99270.13;;;21.48;91.47
5753;BME280;2901;42.140;24.760;2023-06-19T00:45:59;99276.47;;;21.44;91.55
5753;BME280;2901;42.140;24.760;2023-06-19T00:48:26;99275.66;;;21.44;91.75
5753;BME280;2901;42.140;24.760;2023-06-19T00:50:52;99269.69;;;21.40;91.44
5753;BME280;2901;42.140;24.760;2023-06-19T00:53:19;99276.66;;;21.41;91.56
5753;BME280;2901;42.140;24.760;2023-06-19T00:55:45;99279.53;;;21.37;91.65
5753;BME280;2901;42.140;24.760;2023-06-19T00:58:11;99274.44;;;21.34;91.76
5753;BME280;2901;42.140;24.760;2023-06-19T01:00:37;99271.94;;;21.31;91.57
5753;BME280;2901;42.140;24.760;2023-06-19T01:03:02;99274.69;;;21.29;91.78
5753;BME280;2901;42.140;24.760;2023-06-19T01:05:29;99273.91;;;21.27;91.60
5753;BME280;2901;42.140;24.760;2023-06-19T01:10:24;99277.66;;;21.23;91.54
5753;BME280;2901;42.140;24.760;2023-06-19T01:12:58;99275.19;;;21.20;92.00
5753;BME280;2901;42.140;24.760;2023-06-19T01:15:25;99275.34;;;21.17;91.95
5753;BME280;2901;42.140;24.760;2023-06-19T01:17:54;99270.25;;;21.14;92.01
5753;BME280;2901;42.140;24.760;2023-06-19T01:20:20;99257.84;;;21.16;91.82
5753;BME280;2901;42.140;24.760;2023-06-19T01:22:45;99266.59;;;21.16;91.82
5753;BME280;2901;42.140;24.760;2023-06-19T01:25:11;99262.19;;;21.17;91.71
5753;BME280;2901;42.140;24.760;2023-06-19T01:27:40;99254.44;;;21.14;91.64
5753;BME280;2901;42.140;24.760;2023-06-19T01:30:08;99258.91;;;21.12;91.58
5753;BME280;2901;42.140;24.760;2023-06-19T01:32:42;99265.91;;;21.13;91.65
5753;BME280;2901;42.140;24.760;2023-06-19T01:35:11;99263.34;;;21.11;91.64
5753;BME280;2901;42.140;24.760;2023-06-19T01:37:38;99266.06;;;21.10;91.41
5753;BME280;2901;42.140;24.760;2023-06-19T01:40:05;99266.94;;;21.09;91.37
5753;BME280;2901;42.140;24.760;2023-06-19T01:42:35;99258.06;;;21.11;90.97
5753;BME280;2901;42.140;24.760;2023-06-19T01:45:02;99253.66;;;21.12;91.06
5753;BME280;2901;42.140;24.760;2023-06-19T01:47:28;99262.47;;;21.11;91.03
5753;BME280;2901;42.140;24.760;2023-06-19T01:49:54;99258.16;;;21.10;90.99
5753;BME280;2901;42.140;24.760;2023-06-19T01:52:19;99254.72;;;21.08;91.07
5753;BME280;2901;42.140;24.760;2023-06-19T01:54:45;99256.41;;;21.09;90.97
5753;BME280;2901;42.140;24.760;2023-06-19T01:57:10;99248.69;;;21.06;91.11
5753;BME280;2901;42.140;24.760;2023-06-19T01:59:36;99261.56;;;21.12;90.90
5753;BME280;2901;42.140;24.760;2023-06-19T02:02:01;99258.28;;;21.07;90.76
5753;BME280;2901;42.140;24.760;2023-06-19T02:04:29;99259.06;;;21.09;90.94
5753;BME280;2901;42.140;24.760;2023-06-19T02:06:54;99252.91;;;21.10;90.72
5753;BME280;2901;42.140;24.760;2023-06-19T02:09:20;99255.56;;;21.08;90.70
5753;BME280;2901;42.140;24.760;2023-06-19T02:11:45;99254.81;;;21.06;90.31
5753;BME280;2901;42.140;24.760;2023-06-19T02:14:11;99269.44;;;21.12;90.26
5753;BME280;2901;42.140;24.760;2023-06-19T02:16:36;99261.66;;;21.10;89.89
5753;BME280;2901;42.140;24.760;2023-06-19T02:19:02;99259.78;;;21.12;89.61
5753;BME280;2901;42.140;24.760;2023-06-19T02:21:27;99263.25;;;21.13;89.22
5753;BME280;2901;42.140;24.760;2023-06-19T02:23:53;99270.66;;;21.22;89.05
5753;BME280;2901;42.140;24.760;2023-06-19T02:26:19;99271.41;;;21.24;88.95
5753;BME280;2901;42.140;24.760;2023-06-19T02:28:44;99271.94;;;21.31;88.20
5753;BME280;2901;42.140;24.760;2023-06-19T02:31:10;99279.72;;;21.34;87.81
5753;BME280;2901;42.140;24.760;2023-06-19T02:33:35;99279.63;;;21.35;87.79
5753;BME280;2901;42.140;24.760;2023-06-19T02:36:00;99284.81;;;21.37;87.59
5753;BME280;2901;42.140;24.760;2023-06-19T02:38:27;99283.09;;;21.36;87.16
5753;BME280;2901;42.140;24.760;2023-06-19T02:40:55;99284.38;;;21.44;86.67
5753;BME280;2901;42.140;24.760;2023-06-19T02:43:22;99281.06;;;21.41;86.63
5753;BME280;2901;42.140;24.760;2023-06-19T02:45:48;99282.78;;;21.42;86.53
5753;BME280;2901;42.140;24.760;2023-06-19T02:48:13;99282.69;;;21.43;86.61
5753;BME280;2901;42.140;24.760;2023-06-19T02:50:38;99284.38;;;21.44;86.38
5753;BME280;2901;42.140;24.760;2023-06-19T02:53:04;99284.22;;;21.47;85.73
5753;BME280;2901;42.140;24.760;2023-06-19T02:55:29;99285.91;;;21.48;86.08
5753;BME280;2901;42.140;24.760;2023-06-19T02:57:54;99289.25;;;21.52;85.64
5753;BME280;2901;42.140;24.760;2023-06-19T03:00:20;99294.50;;;21.52;85.70
5753;BME280;2901;42.140;24.760;2023-06-19T03:02:45;99285.34;;;21.43;85.91
5753;BME280;2901;42.140;24.760;2023-06-19T03:05:13;99288.81;;;21.44;86.09
5753;BME280;2901;42.140;24.760;2023-06-19T03:07:41;99283.56;;;21.44;86.41
5753;BME280;2901;42.140;24.760;2023-06-19T03:10:06;99277.91;;;21.34;86.71
5753;BME280;2901;42.140;24.760;2023-06-19T03:12:32;99287.34;;;21.38;86.75
5753;BME280;2901;42.140;24.760;2023-06-19T03:14:57;99286.50;;;21.38;87.05
5753;BME280;2901;42.140;24.760;2023-06-19T03:17:23;99269.66;;;21.25;87.28
5753;BME280;2901;42.140;24.760;2023-06-19T03:19:48;99281.41;;;21.35;87.35
5753;BME280;2901;42.140;24.760;2023-06-19T03:22:13;99286.75;;;21.33;87.49
5753;BME280;2901;42.140;24.760;2023-06-19T03:24:39;99291.34;;;21.30;87.39
5753;BME280;2901;42.140;24.760;2023-06-19T03:27:04;99283.66;;;21.25;87.81
5753;BME280;2901;42.140;24.760;2023-06-19T03:29:30;99282.75;;;21.26;88.11
5753;BME280;2901;42.140;24.760;2023-06-19T03:31:55;99292.38;;;21.27;88.14
5753;BME280;2901;42.140;24.760;2023-06-19T03:34:20;99293.44;;;21.23;88.56
5753;BME280;2901;42.140;24.760;2023-06-19T03:36:46;99289.84;;;21.24;88.54
5753;BME280;2901;42.140;24.760;2023-06-19T03:39:11;99284.75;;;21.21;88.50
5753;BME280;2901;42.140;24.760;2023-06-19T03:41:37;99292.59;;;21.23;88.55
5753;BME280;2901;42.140;24.760;2023-06-19T03:44:02;99278.72;;;21.19;88.18
5753;BME280;2901;42.140;24.760;2023-06-19T03:46:27;99290.53;;;21.28;88.07
5753;BME280;2901;42.140;24.760;2023-06-19T03:48:53;99289.47;;;21.32;88.01
5753;BME280;2901;42.140;24.760;2023-06-19T03:51:19;99291.06;;;21.34;87.50
5753;BME280;2901;42.140;24.760;2023-06-19T03:53:44;99290.31;;;21.32;87.66
5753;BME280;2901;42.140;24.760;2023-06-19T03:56:10;99302.91;;;21.43;87.57
5753;BME280;2901;42.140;24.760;2023-06-19T03:58:35;99295.59;;;21.48;87.10
5753;BME280;2901;42.140;24.760;2023-06-19T04:01:01;99290.44;;;21.46;86.92
5753;BME280;2901;42.140;24.760;2023-06-19T04:03:26;99285.50;;;21.56;86.87
5753;BME280;2901;42.140;24.760;2023-06-19T04:05:51;99285.34;;;21.59;87.03
5753;BME280;2901;42.140;24.760;2023-06-19T04:08:17;99281.34;;;21.67;86.49
5753;BME280;2901;42.140;24.760;2023-06-19T04:10:42;99297.78;;;21.72;86.58
5753;BME280;2901;42.140;24.760;2023-06-19T04:13:08;99287.06;;;21.76;85.99
5753;BME280;2901;42.140;24.760;2023-06-19T04:15:33;99283.50;;;21.77;85.84
5753;BME280;2901;42.140;24.760;2023-06-19T04:18:00;99288.41;;;21.83;85.71
5753;BME280;2901;42.140;24.760;2023-06-19T04:20:26;99291.06;;;21.83;85.75
5753;BME280;2901;42.140;24.760;2023-06-19T04:22:51;99277.53;;;21.89;85.03
5753;BME280;2901;42.140;24.760;2023-06-19T04:25:17;99280.88;;;21.92;85.51
5753;BME280;2901;42.140;24.760;2023-06-19T04:27:43;99282.47;;;21.95;85.44
5753;BME280;2901;42.140;24.760;2023-06-19T04:30:10;99282.06;;;22.02;84.84
5753;BME280;2901;42.140;24.760;2023-06-19T04:32:36;99276.69;;;22.04;84.42
5753;BME280;2901;42.140;24.760;2023-06-19T04:35:04;99277.19;;;22.10;84.34
5753;BME280;2901;42.140;24.760;2023-06-19T04:37:29;99282.22;;;22.15;84.03
5753;BME280;2901;42.140;24.760;2023-06-19T04:39:55;99285.53;;;22.18;83.83
5753;BME280;2901;42.140;24.760;2023-06-19T04:42:21;99283.56;;;22.22;83.19
5753;BME280;2901;42.140;24.760;2023-06-19T04:44:47;99290.94;;;22.31;83.33
5753;BME280;2901;42.140;24.760;2023-06-19T04:47:13;99293.81;;;22.42;82.66
5753;BME280;2901;42.140;24.760;2023-06-19T04:49:39;99291.25;;;22.41;82.47
5753;BME280;2901;42.140;24.760;2023-06-19T04:52:04;99288.72;;;22.39;82.03
5753;BME280;2901;42.140;24.760;2023-06-19T04:54:29;99283.84;;;22.47;82.42
5753;BME280;2901;42.140;24.760;2023-06-19T04:56:57;99287.16;;;22.51;81.66
5753;BME280;2901;42.140;24.760;2023-06-19T04:59:23;99279.91;;;22.54;81.66
5753;BME280;2901;42.140;24.760;2023-06-19T05:01:48;99282.19;;;22.60;81.18
5753;BME280;2901;42.140;24.760;2023-06-19T05:04:14;99274.00;;;22.65;80.62
5753;BME280;2901;42.140;24.760;2023-06-19T05:06:39;99285.75;;;22.75;80.48
5753;BME280;2901;42.140;24.760;2023-06-19T05:09:05;99278.13;;;22.85;79.70
5753;BME280;2901;42.140;24.760;2023-06-19T05:11:30;99280.41;;;22.91;79.11
5753;BME280;2901;42.140;24.760;2023-06-19T05:13:56;99283.41;;;22.99;78.55
5753;BME280;2901;42.140;24.760;2023-06-19T05:16:22;99288.41;;;23.03;78.10
5753;BME280;2901;42.140;24.760;2023-06-19T05:18:48;99281.16;;;23.07;78.24
5753;BME280;2901;42.140;24.760;2023-06-19T05:21:14;99285.88;;;23.16;77.98
5753;BME280;2901;42.140;24.760;2023-06-19T05:23:40;99291.25;;;23.28;77.71
5753;BME280;2901;42.140;24.760;2023-06-19T05:26:05;99289.69;;;23.40;77.01
5753;BME280;2901;42.140;24.760;2023-06-19T05:28:31;99285.72;;;23.47;77.07
5753;BME280;2901;42.140;24.760;2023-06-19T05:30:56;99288.06;;;23.52;75.97
5753;BME280;2901;42.140;24.760;2023-06-19T05:33:22;99288.19;;;23.50;76.10
5753;BME280;2901;42.140;24.760;2023-06-19T05:35:48;99286.66;;;23.46;76.51
5753;BME280;2901;42.140;24.760;2023-06-19T05:38:18;99293.34;;;23.52;75.96
5753;BME280;2901;42.140;24.760;2023-06-19T05:40:43;99286.84;;;23.57;76.46
5753;BME280;2901;42.140;24.760;2023-06-19T05:43:09;99294.78;;;23.57;75.35
5753;BME280;2901;42.140;24.760;2023-06-19T05:45:34;99289.50;;;23.57;75.51
5753;BME280;2901;42.140;24.760;2023-06-19T05:48:00;99297.78;;;23.65;75.90
5753;BME280;2901;42.140;24.760;2023-06-19T05:50:25;99300.50;;;23.78;75.22
5753;BME280;2901;42.140;24.760;2023-06-19T05:52:50;99295.84;;;23.82;73.82
5753;BME280;2901;42.140;24.760;2023-06-19T05:55:17;99315.88;;;23.86;73.79
5753;BME280;2901;42.140;24.760;2023-06-19T05:57:42;99298.69;;;23.93;73.56
5753;BME280;2901;42.140;24.760;2023-06-19T06:00:08;99299.78;;;24.03;73.65
5753;BME280;2901;42.140;24.760;2023-06-19T06:02:39;99299.13;;;23.99;72.80
5753;BME280;2901;42.140;24.760;2023-06-19T06:05:05;99299.41;;;23.95;73.41
5753;BME280;2901;42.140;24.760;2023-06-19T06:07:30;99289.66;;;24.09;74.31
5753;BME280;2901;42.140;24.760;2023-06-19T06:09:56;99302.88;;;24.23;72.68
5753;BME280;2901;42.140;24.760;2023-06-19T06:12:21;99297.47;;;24.25;72.27
5753;BME280;2901;42.140;24.760;2023-06-19T06:14:46;99311.63;;;24.24;72.10
5753;BME280;2901;42.140;24.760;2023-06-19T06:17:12;99305.25;;;24.41;70.91
5753;BME280;2901;42.140;24.760;2023-06-19T06:19:37;99307.63;;;24.58;70.82
5753;BME280;2901;42.140;24.760;2023-06-19T06:22:04;99304.13;;;24.57;69.27
5753;BME280;2901;42.140;24.760;2023-06-19T06:24:29;99307.34;;;24.62;68.31
5753;BME280;2901;42.140;24.760;2023-06-19T06:26:55;99304.47;;;24.65;67.98
5753;BME280;2901;42.140;24.760;2023-06-19T06:29:20;99289.53;;;24.64;67.47
5753;BME280;2901;42.140;24.760;2023-06-19T06:31:46;99299.84;;;24.82;67.87
5753;BME280;2901;42.140;24.760;2023-06-19T06:34:12;99294.38;;;24.85;67.97
5753;BME280;2901;42.140;24.760;2023-06-19T06:36:38;99285.47;;;24.86;66.21
5753;BME280;2901;42.140;24.760;2023-06-19T06:39:04;99305.72;;;24.99;66.09
5753;BME280;2901;42.140;24.760;2023-06-19T06:41:31;99301.69;;;25.06;65.76
5753;BME280;2901;42.140;24.760;2023-06-19T06:43:56;99305.72;;;25.12;66.46
5753;BME280;2901;42.140;24.760;2023-06-19T06:46:22;99301.03;;;25.03;65.98
5753;BME280;2901;42.140;24.760;2023-06-19T06:48:48;99310.69;;;25.04;65.36
5753;BME280;2901;42.140;24.760;2023-06-19T06:51:13;99297.97;;;24.96;65.72
5753;BME280;2901;42.140;24.760;2023-06-19T06:53:38;99292.47;;;24.99;65.42
5753;BME280;2901;42.140;24.760;2023-06-19T06:56:04;99300.72;;;25.07;65.79
5753;BME280;2901;42.140;24.760;2023-06-19T06:58:29;99307.94;;;25.05;65.19
5753;BME280;2901;42.140;24.760;2023-06-19T07:00:55;99315.06;;;25.05;65.49
5753;BME280;2901;42.140;24.760;2023-06-19T07:03:21;99300.31;;;25.13;65.62
5753;BME280;2901;42.140;24.760;2023-06-19T07:05:47;99303.94;;;25.25;64.64
5753;BME280;2901;42.140;24.760;2023-06-19T07:08:13;99304.34;;;25.32;65.05
5753;BME280;2901;42.140;24.760;2023-06-19T07:10:38;99306.25;;;25.42;64.60
5753;BME280;2901;42.140;24.760;2023-06-19T07:13:04;99305.63;;;25.51;64.00
5753;BME280;2901;42.140;24.760;2023-06-19T07:15:29;99318.13;;;25.62;61.76
5753;BME280;2901;42.140;24.760;2023-06-19T07:17:55;99310.06;;;25.63;63.35
5753;BME280;2901;42.140;24.760;2023-06-19T07:20:21;99321.72;;;25.73;62.19
5753;BME280;2901;42.140;24.760;2023-06-19T07:22:47;99325.31;;;25.72;61.30
5753;BME280;2901;42.140;24.760;2023-06-19T07:25:12;99314.91;;;25.69;60.88
5753;BME280;2901;42.140;24.760;2023-06-19T07:27:40;99310.56;;;25.81;61.08
5753;BME280;2901;42.140;24.760;2023-06-19T07:30:06;99317.34;;;25.85;60.97
5753;BME280;2901;42.140;24.760;2023-06-19T07:32:32;99319.50;;;26.04;59.90
5753;BME280;2901;42.140;24.760;2023-06-19T07:34:57;99319.69;;;26.13;59.71
5753;BME280;2901;42.140;24.760;2023-06-19T07:37:23;99311.72;;;26.13;58.95
5753;BME280;2901;42.140;24.760;2023-06-19T07:39:50;99307.09;;;26.28;59.55
5753;BME280;2901;42.140;24.760;2023-06-19T07:42:17;99317.56;;;26.42;58.88
5753;BME280;2901;42.140;24.760;2023-06-19T07:44:43;99313.25;;;26.52;57.54
5753;BME280;2901;42.140;24.760;2023-06-19T07:47:09;99317.88;;;26.61;56.38
5753;BME280;2901;42.140;24.760;2023-06-19T07:49:35;99308.66;;;26.43;56.07
5753;BME280;2901;42.140;24.760;2023-06-19T07:52:00;99311.31;;;26.43;57.53
5753;BME280;2901;42.140;24.760;2023-06-19T07:54:26;99309.53;;;26.55;56.55
5753;BME280;2901;42.140;24.760;2023-06-19T07:56:51;99312.47;;;26.63;55.67
5753;BME280;2901;42.140;24.760;2023-06-19T07:59:17;99310.69;;;26.74;54.58
5753;BME280;2901;42.140;24.760;2023-06-19T08:01:43;99314.75;;;26.91;52.89
5753;BME280;2901;42.140;24.760;2023-06-19T08:04:08;99321.06;;;27.01;54.21
5753;BME280;2901;42.140;24.760;2023-06-19T08:06:34;99330.59;;;26.93;53.41
5753;BME280;2901;42.140;24.760;2023-06-19T08:08:59;99318.16;;;26.93;54.23
5753;BME280;2901;42.140;24.760;2023-06-19T08:11:25;99315.03;;;26.99;53.66
5753;BME280;2901;42.140;24.760;2023-06-19T08:13:50;99314.66;;;27.04;54.12
5753;BME280;2901;42.140;24.760;2023-06-19T08:16:15;99319.16;;;27.14;53.49
5753;BME280;2901;42.140;24.760;2023-06-19T08:18:41;99311.81;;;27.29;53.17
5753;BME280;2901;42.140;24.760;2023-06-19T08:21:07;99311.47;;;27.45;52.51
5753;BME280;2901;42.140;24.760;2023-06-19T08:23:32;99314.50;;;27.51;53.03
5753;BME280;2901;42.140;24.760;2023-06-19T08:25:58;99310.50;;;27.68;52.16
5753;BME280;2901;42.140;24.760;2023-06-19T08:28:23;99312.53;;;27.87;50.96
5753;BME280;2901;42.140;24.760;2023-06-19T08:30:49;99298.97;;;28.01;50.17
5753;BME280;2901;42.140;24.760;2023-06-19T08:33:14;99321.81;;;28.03;51.30
5753;BME280;2901;42.140;24.760;2023-06-19T08:35:40;99332.75;;;28.11;50.82
5753;BME280;2901;42.140;24.760;2023-06-19T08:38:05;99329.09;;;27.90;49.38
5753;BME280;2901;42.140;24.760;2023-06-19T08:40:31;99322.22;;;27.88;49.29
5753;BME280;2901;42.140;24.760;2023-06-19T08:42:56;99324.38;;;27.94;49.33
5753;BME280;2901;42.140;24.760;2023-06-19T08:45:22;99330.06;;;28.00;48.93
5753;BME280;2901;42.140;24.760;2023-06-19T08:47:48;99326.53;;;28.00;49.30
5753;BME280;2901;42.140;24.760;2023-06-19T08:50:17;99321.50;;;27.86;47.70
5753;BME280;2901;42.140;24.760;2023-06-19T08:52:42;99338.44;;;27.84;47.10
5753;BME280;2901;42.140;24.760;2023-06-19T08:55:08;99324.78;;;27.78;46.57
5753;BME280;2901;42.140;24.760;2023-06-19T08:57:40;99309.63;;;27.90;47.34
5753;BME280;2901;42.140;24.760;2023-06-19T09:00:06;99309.25;;;28.05;47.80
5753;BME280;2901;42.140;24.760;2023-06-19T09:02:45;99321.94;;;28.24;45.47
5753;BME280;2901;42.140;24.760;2023-06-19T09:05:16;99318.25;;;28.36;44.52
5753;BME280;2901;42.140;24.760;2023-06-19T09:07:43;99316.56;;;28.35;46.11
5753;BME280;2901;42.140;24.760;2023-06-19T09:10:18;99312.88;;;28.47;46.47
5753;BME280;2901;42.140;24.760;2023-06-19T09:12:55;99307.75;;;28.66;46.34
5753;BME280;2901;42.140;24.760;2023-06-19T09:15:21;99309.00;;;28.83;46.31
5753;BME280;2901;42.140;24.760;2023-06-19T09:18:02;99297.88;;;28.78;45.93
5753;BME280;2901;42.140;24.760;2023-06-19T09:20:28;99310.50;;;28.97;46.28
5753;BME280;2901;42.140;24.760;2023-06-19T09:22:55;99294.97;;;28.81;45.25
5753;BME280;2901;42.140;24.760;2023-06-19T09:25:20;99306.31;;;28.83;45.18
5753;BME280;2901;42.140;24.760;2023-06-19T09:27:46;99304.63;;;28.82;45.93
5753;BME280;2901;42.140;24.760;2023-06-19T09:30:15;99293.00;;;28.83;44.91
5753;BME280;2901;42.140;24.760;2023-06-19T09:32:41;99289.69;;;28.91;44.52
5753;BME280;2901;42.140;24.760;2023-06-19T09:35:06;99296.78;;;28.80;43.72
5753;BME280;2901;42.140;24.760;2023-06-19T09:37:32;99293.47;;;28.88;43.69
5753;BME280;2901;42.140;24.760;2023-06-19T09:40:00;99294.50;;;29.17;43.27
5753;BME280;2901;42.140;24.760;2023-06-19T09:42:31;99283.09;;;29.36;42.72
5753;BME280;2901;42.140;24.760;2023-06-19T09:45:04;99286.41;;;29.28;41.19
5753;BME280;2901;42.140;24.760;2023-06-19T09:47:38;99280.38;;;29.26;41.06
5753;BME280;2901;42.140;24.760;2023-06-19T09:50:06;99280.53;;;29.34;40.86
5753;BME280;2901;42.140;24.760;2023-06-19T09:52:33;99276.50;;;29.40;39.47
5753;BME280;2901;42.140;24.760;2023-06-19T09:55:02;99289.91;;;29.50;41.20
5753;BME280;2901;42.140;24.760;2023-06-19T09:57:28;99276.28;;;29.53;41.84
5753;BME280;2901;42.140;24.760;2023-06-19T09:59:55;99282.78;;;29.60;41.19
5753;BME280;2901;42.140;24.760;2023-06-19T10:02:25;99284.22;;;29.73;41.52
5753;BME280;2901;42.140;24.760;2023-06-19T10:04:55;99278.97;;;29.93;40.63
5753;BME280;2901;42.140;24.760;2023-06-19T10:07:22;99282.19;;;29.96;39.34
5753;BME280;2901;42.140;24.760;2023-06-19T10:09:57;99276.97;;;29.95;40.97
5753;BME280;2901;42.140;24.760;2023-06-19T10:12:43;99268.00;;;30.05;40.79
5753;BME280;2901;42.140;24.760;2023-06-19T10:15:19;99263.66;;;30.23;41.27
5753;BME280;2901;42.140;24.760;2023-06-19T10:17:50;99274.19;;;30.06;40.74
5753;BME280;2901;42.140;24.760;2023-06-19T10:20:28;99265.34;;;30.15;39.95
5753;BME280;2901;42.140;24.760;2023-06-19T10:23:05;99261.97;;;30.13;39.75
5753;BME280;2901;42.140;24.760;2023-06-19T10:25:35;99258.34;;;30.33;40.30
5753;BME280;2901;42.140;24.760;2023-06-19T10:28:02;99271.72;;;30.33;39.68
5753;BME280;2901;42.140;24.760;2023-06-19T10:30:31;99250.75;;;30.48;38.86
5753;BME280;2901;42.140;24.760;2023-06-19T10:32:57;99243.16;;;30.62;38.56
5753;BME280;2901;42.140;24.760;2023-06-19T10:35:22;99256.78;;;30.78;37.55
5753;BME280;2901;42.140;24.760;2023-06-19T10:37:50;99256.81;;;30.69;36.04
5753;BME280;2901;42.140;24.760;2023-06-19T10:40:16;99247.47;;;30.73;37.01
5753;BME280;2901;42.140;24.760;2023-06-19T10:42:45;99256.75;;;30.88;36.79
5753;BME280;2901;42.140;24.760;2023-06-19T10:45:12;99249.44;;;31.00;37.02
5753;BME280;2901;42.140;24.760;2023-06-19T10:47:39;99241.41;;;31.00;36.13
5753;BME280;2901;42.140;24.760;2023-06-19T10:50:13;99235.19;;;31.09;37.63
5753;BME280;2901;42.140;24.760;2023-06-19T10:52:40;99239.97;;;31.15;37.30
5753;BME280;2901;42.140;24.760;2023-06-19T10:55:06;99236.19;;;31.08;36.20
5753;BME280;2901;42.140;24.760;2023-06-19T10:57:32;99237.78;;;30.81;37.58
5753;BME280;2901;42.140;24.760;2023-06-19T10:59:58;99232.41;;;30.91;37.75
5753;BME280;2901;42.140;24.760;2023-06-19T11:02:24;99224.38;;;30.91;38.25
5753;BME280;2901;42.140;24.760;2023-06-19T11:04:53;99219.03;;;31.01;38.72
5753;BME280;2901;42.140;24.760;2023-06-19T11:07:18;99221.41;;;31.04;38.49
5753;BME280;2901;42.140;24.760;2023-06-19T11:09:44;99209.81;;;31.13;39.07
5753;BME280;2901;42.140;24.760;2023-06-19T11:12:10;99215.44;;;31.47;38.67
5753;BME280;2901;42.140;24.760;2023-06-19T11:14:35;99210.53;;;31.69;37.50
5753;BME280;2901;42.140;24.760;2023-06-19T11:17:05;99216.34;;;31.37;37.52
5753;BME280;2901;42.140;24.760;2023-06-19T11:19:31;99221.94;;;31.44;37.02
5753;BME280;2901;42.140;24.760;2023-06-19T11:21:58;99224.31;;;31.20;36.29
5753;BME280;2901;42.140;24.760;2023-06-19T11:24:26;99221.97;;;31.07;36.30
5753;BME280;2901;42.140;24.760;2023-06-19T11:26:52;99216.38;;;31.28;36.17
5753;BME280;2901;42.140;24.760;2023-06-19T11:29:25;99221.22;;;31.52;36.23
5753;BME280;2901;42.140;24.760;2023-06-19T11:32:03;99199.38;;;31.47;36.77
5753;BME280;2901;42.140;24.760;2023-06-19T11:34:34;99205.44;;;31.76;36.68
5753;BME280;2901;42.140;24.760;2023-06-19T11:37:02;99205.88;;;31.71;35.16
5753;BME280;2901;42.140;24.760;2023-06-19T11:39:31;99205.19;;;31.69;34.47
5753;BME280;2901;42.140;24.760;2023-06-19T11:41:58;99218.06;;;31.83;33.97
5753;BME280;2901;42.140;24.760;2023-06-19T11:44:24;99206.84;;;31.98;33.27
5753;BME280;2901;42.140;24.760;2023-06-19T11:46:49;99216.41;;;32.18;32.75
5753;BME280;2901;42.140;24.760;2023-06-19T11:49:16;99212.28;;;32.06;32.85
5753;BME280;2901;42.140;24.760;2023-06-19T11:51:45;99199.44;;;32.27;33.11
5753;BME280;2901;42.140;24.760;2023-06-19T11:54:12;99178.63;;;32.64;32.80
5753;BME280;2901;42.140;24.760;2023-06-19T11:56:38;99191.53;;;32.86;33.86
5753;BME280;2901;42.140;24.760;2023-06-19T11:59:04;99197.25;;;32.66;33.39
5753;BME280;2901;42.140;24.760;2023-06-19T12:01:31;99186.47;;;32.58;33.86
5753;BME280;2901;42.140;24.760;2023-06-19T12:03:57;99193.47;;;32.76;34.02
5753;BME280;2901;42.140;24.760;2023-06-19T12:06:23;99181.19;;;32.74;32.76
5753;BME280;2901;42.140;24.760;2023-06-19T12:08:48;99180.81;;;32.25;33.02
5753;BME280;2901;42.140;24.760;2023-06-19T12:11:13;99181.84;;;32.07;33.80
5753;BME280;2901;42.140;24.760;2023-06-19T12:13:42;99197.97;;;32.15;34.24
5753;BME280;2901;42.140;24.760;2023-06-19T12:16:09;99186.53;;;31.95;33.86
5753;BME280;2901;42.140;24.760;2023-06-19T12:18:35;99174.91;;;31.86;34.72
5753;BME280;2901;42.140;24.760;2023-06-19T12:21:00;99175.84;;;32.13;34.57
5753;BME280;2901;42.140;24.760;2023-06-19T12:23:25;99177.91;;;32.36;34.29
5753;BME280;2901;42.140;24.760;2023-06-19T12:25:51;99166.69;;;32.84;34.24
5753;BME280;2901;42.140;24.760;2023-06-19T12:28:16;99170.47;;;33.00;30.55
5753;BME280;2901;42.140;24.760;2023-06-19T12:30:45;99166.28;;;32.71;31.34
5753;BME280;2901;42.140;24.760;2023-06-19T12:33:11;99158.66;;;32.59;31.39
5753;BME280;2901;42.140;24.760;2023-06-19T12:35:40;99162.31;;;32.58;31.36
5753;BME280;2901;42.140;24.760;2023-06-19T12:38:09;99155.75;;;32.34;31.79
5753;BME280;2901;42.140;24.760;2023-06-19T12:40:35;99155.19;;;32.23;31.96
5753;BME280;2901;42.140;24.760;2023-06-19T12:43:01;99149.31;;;32.27;32.02
5753;BME280;2901;42.140;24.760;2023-06-19T12:45:26;99150.56;;;32.33;31.90
5753;BME280;2901;42.140;24.760;2023-06-19T12:47:52;99155.09;;;32.32;31.42
5753;BME280;2901;42.140;24.760;2023-06-19T12:50:17;99153.34;;;32.49;31.35
5753;BME280;2901;42.140;24.760;2023-06-19T12:52:43;99147.06;;;32.84;29.88
5753;BME280;2901;42.140;24.760;2023-06-19T12:55:08;99155.13;;;33.18;30.96
5753;BME280;2901;42.140;24.760;2023-06-19T12:57:33;99134.44;;;33.52;29.36
5753;BME280;2901;42.140;24.760;2023-06-19T12:59:59;99136.78;;;33.47;29.96
5753;BME280;2901;42.140;24.760;2023-06-19T13:02:24;99146.66;;;33.38;30.55
5753;BME280;2901;42.140;24.760;2023-06-19T13:04:50;99137.13;;;33.60;30.20
5753;BME280;2901;42.140;24.760;2023-06-19T13:07:15;99146.41;;;33.16;30.65
5753;BME280;2901;42.140;24.760;2023-06-19T13:09:41;99126.97;;;33.22;30.82